sensor_id;sensor_type;location;lat;lon;timestamp;temperature;humidity
610;DHT22;292;48.800;9.216;2023-04-15T00:01:17;10.70;59.40
610;DHT22;292;48.800;9.216;2023-04-15T00:03:45;10.70;59.30
610;DHT22;292;48.800;9.216;2023-04-15T00:06:12;10.70;59.30
610;DHT22;292;48.800;9.216;2023-04-15T00:08:39;10.70;59.30
610;DHT22;292;48.800;9.216;2023-04-15T00:11:07;10.70;59.20
610;DHT22;292;48.800;9.216;2023-04-15T00:13:35;10.60;59.30
610;DHT22;292;48.800;9.216;2023-04-15T00:16:02;10.60;59.30
610;DHT22;292;48.800;9.216;2023-04-15T00:18:29;10.60;59.40
610;DHT22;292;48.800;9.216;2023-04-15T00:20:56;10.60;59.60
610;DHT22;292;48.800;9.216;2023-04-15T00:23:24;10.60;59.70
610;DHT22;292;48.800;9.216;2023-04-15T00:25:51;10.50;59.80
610;DHT22;292;48.800;9.216;2023-04-15T00:28:19;10.50;59.80
610;DHT22;292;48.800;9.216;2023-04-15T00:30:46;10.50;60.00
610;DHT22;292;48.800;9.216;2023-04-15T00:33:14;10.50;60.00
610;DHT22;292;48.800;9.216;2023-04-15T00:35:42;10.50;60.00
610;DHT22;292;48.800;9.216;2023-04-15T00:38:09;10.50;60.00
610;DHT22;292;48.800;9.216;2023-04-15T00:40:37;10.40;60.00
610;DHT22;292;48.800;9.216;2023-04-15T00:43:04;10.40;60.00
610;DHT22;292;48.800;9.216;2023-04-15T00:45:33;10.40;60.10
610;DHT22;292;48.800;9.216;2023-04-15T00:47:59;10.30;60.10
610;DHT22;292;48.800;9.216;2023-04-15T00:50:27;10.30;60.40
610;DHT22;292;48.800;9.216;2023-04-15T00:52:54;10.30;60.40
610;DHT22;292;48.800;9.216;2023-04-15T00:55:21;10.30;60.40
610;DHT22;292;48.800;9.216;2023-04-15T00:57:49;10.20;60.50
610;DHT22;292;48.800;9.216;2023-04-15T01:00:16;10.20;60.80
610;DHT22;292;48.800;9.216;2023-04-15T01:02:46;10.10;61.00
610;DHT22;292;48.800;9.216;2023-04-15T01:05:13;10.10;61.10
610;DHT22;292;48.800;9.216;2023-04-15T01:07:42;10.00;61.20
610;DHT22;292;48.800;9.216;2023-04-15T01:10:09;9.90;61.40
610;DHT22;292;48.800;9.216;2023-04-15T01:12:36;9.80;61.80
610;DHT22;292;48.800;9.216;2023-04-15T01:15:04;9.80;62.00
610;DHT22;292;48.800;9.216;2023-04-15T01:17:32;9.70;62.10
610;DHT22;292;48.800;9.216;2023-04-15T01:20:01;9.60;62.40
610;DHT22;292;48.800;9.216;2023-04-15T01:22:29;9.50;62.40
610;DHT22;292;48.800;9.216;2023-04-15T01:25:04;9.50;62.50
610;DHT22;292;48.800;9.216;2023-04-15T01:27:34;9.50;62.50
610;DHT22;292;48.800;9.216;2023-04-15T01:30:01;9.50;62.70
610;DHT22;292;48.800;9.216;2023-04-15T01:32:29;9.50;62.70
610;DHT22;292;48.800;9.216;2023-04-15T01:34:56;9.50;62.70
610;DHT22;292;48.800;9.216;2023-04-15T01:37:24;9.50;62.80
610;DHT22;292;48.800;9.216;2023-04-15T01:39:52;9.50;63.00
610;DHT22;292;48.800;9.216;2023-04-15T01:42:20;9.50;63.10
610;DHT22;292;48.800;9.216;2023-04-15T01:44:48;9.50;63.10
610;DHT22;292;48.800;9.216;2023-04-15T01:47:15;9.50;63.30
610;DHT22;292;48.800;9.216;2023-04-15T01:49:42;9.40;63.40
610;DHT22;292;48.800;9.216;2023-04-15T01:52:09;9.40;63.40
610;DHT22;292;48.800;9.216;2023-04-15T01:54:36;9.40;63.60
610;DHT22;292;48.800;9.216;2023-04-15T01:57:03;9.30;63.80
610;DHT22;292;48.800;9.216;2023-04-15T01:59:30;9.30;63.80
610;DHT22;292;48.800;9.216;2023-04-15T02:01:59;9.30;64.00
610;DHT22;292;48.800;9.216;2023-04-15T02:04:26;9.30;64.00
610;DHT22;292;48.800;9.216;2023-04-15T02:06:53;9.30;64.10
610;DHT22;292;48.800;9.216;2023-04-15T02:09:20;9.30;64.30
610;DHT22;292;48.800;9.216;2023-04-15T02:11:47;9.20;64.30
610;DHT22;292;48.800;9.216;2023-04-15T02:14:14;9.20;64.30
610;DHT22;292;48.800;9.216;2023-04-15T02:16:41;9.10;64.10
610;DHT22;292;48.800;9.216;2023-04-15T02:19:10;9.00;64.30
610;DHT22;292;48.800;9.216;2023-04-15T02:21:37;8.80;64.40
610;DHT22;292;48.800;9.216;2023-04-15T02:24:04;8.80;64.70
610;DHT22;292;48.800;9.216;2023-04-15T02:26:32;8.70;64.90
610;DHT22;292;48.800;9.216;2023-04-15T02:28:59;8.60;65.00
610;DHT22;292;48.800;9.216;2023-04-15T02:31:26;8.50;65.10
610;DHT22;292;48.800;9.216;2023-04-15T02:33:53;8.50;65.30
610;DHT22;292;48.800;9.216;2023-04-15T02:36:21;8.40;65.60
610;DHT22;292;48.800;9.216;2023-04-15T02:38:48;8.40;65.70
610;DHT22;292;48.800;9.216;2023-04-15T02:41:15;8.40;65.90
610;DHT22;292;48.800;9.216;2023-04-15T02:43:43;8.30;66.00
610;DHT22;292;48.800;9.216;2023-04-15T02:46:10;8.30;66.20
610;DHT22;292;48.800;9.216;2023-04-15T02:48:39;8.30;66.40
610;DHT22;292;48.800;9.216;2023-04-15T02:51:16;8.30;66.60
610;DHT22;292;48.800;9.216;2023-04-15T02:53:46;8.20;66.70
610;DHT22;292;48.800;9.216;2023-04-15T02:56:13;8.20;66.70
610;DHT22;292;48.800;9.216;2023-04-15T02:58:42;8.20;66.70
610;DHT22;292;48.800;9.216;2023-04-15T03:01:09;8.20;66.90
610;DHT22;292;48.800;9.216;2023-04-15T03:03:36;8.10;66.90
610;DHT22;292;48.800;9.216;2023-04-15T03:06:03;8.10;66.90
610;DHT22;292;48.800;9.216;2023-04-15T03:08:30;8.00;67.00
610;DHT22;292;48.800;9.216;2023-04-15T03:10:59;8.00;67.00
610;DHT22;292;48.800;9.216;2023-04-15T03:13:27;8.00;67.00
610;DHT22;292;48.800;9.216;2023-04-15T03:15:54;8.00;67.20
610;DHT22;292;48.800;9.216;2023-04-15T03:18:21;8.00;67.20
610;DHT22;292;48.800;9.216;2023-04-15T03:20:48;8.00;67.00
610;DHT22;292;48.800;9.216;2023-04-15T03:23:15;7.90;67.30
610;DHT22;292;48.800;9.216;2023-04-15T03:25:43;7.90;67.30
610;DHT22;292;48.800;9.216;2023-04-15T03:28:12;8.00;67.50
610;DHT22;292;48.800;9.216;2023-04-15T03:30:39;8.00;67.50
610;DHT22;292;48.800;9.216;2023-04-15T03:33:06;8.00;67.60
610;DHT22;292;48.800;9.216;2023-04-15T03:35:33;8.00;67.60
610;DHT22;292;48.800;9.216;2023-04-15T03:38:00;8.00;67.60
610;DHT22;292;48.800;9.216;2023-04-15T03:40:27;8.10;67.60
610;DHT22;292;48.800;9.216;2023-04-15T03:42:54;8.10;67.60
610;DHT22;292;48.800;9.216;2023-04-15T03:45:23;8.10;67.60
610;DHT22;292;48.800;9.216;2023-04-15T03:47:50;8.10;67.70
610;DHT22;292;48.800;9.216;2023-04-15T03:50:17;8.10;67.70
610;DHT22;292;48.800;9.216;2023-04-15T03:52:44;8.10;67.70
610;DHT22;292;48.800;9.216;2023-04-15T03:55:11;8.10;67.70
610;DHT22;292;48.800;9.216;2023-04-15T03:57:39;8.00;67.70
610;DHT22;292;48.800;9.216;2023-04-15T04:00:07;8.00;67.90
610;DHT22;292;48.800;9.216;2023-04-15T04:02:36;7.90;67.90
610;DHT22;292;48.800;9.216;2023-04-15T04:05:03;7.90;68.00
610;DHT22;292;48.800;9.216;2023-04-15T04:07:30;7.80;68.00
610;DHT22;292;48.800;9.216;2023-04-15T04:09:57;7.70;68.00
610;DHT22;292;48.800;9.216;2023-04-15T04:12:24;7.70;68.20
610;DHT22;292;48.800;9.216;2023-04-15T04:14:51;7.60;68.00
610;DHT22;292;48.800;9.216;2023-04-15T04:17:18;7.50;68.20
610;DHT22;292;48.800;9.216;2023-04-15T04:19:46;7.50;68.20
610;DHT22;292;48.800;9.216;2023-04-15T04:22:13;7.40;68.30
610;DHT22;292;48.800;9.216;2023-04-15T04:24:40;7.40;68.50
610;DHT22;292;48.800;9.216;2023-04-15T04:27:07;7.30;68.60
610;DHT22;292;48.800;9.216;2023-04-15T04:29:34;7.30;68.70
610;DHT22;292;48.800;9.216;2023-04-15T04:32:01;7.30;68.70
610;DHT22;292;48.800;9.216;2023-04-15T04:34:28;7.20;69.00
610;DHT22;292;48.800;9.216;2023-04-15T04:36:57;7.10;69.20
610;DHT22;292;48.800;9.216;2023-04-15T04:39:23;7.10;69.20
610;DHT22;292;48.800;9.216;2023-04-15T04:41:50;7.00;69.20
610;DHT22;292;48.800;9.216;2023-04-15T04:44:17;6.90;69.20
610;DHT22;292;48.800;9.216;2023-04-15T04:46:44;6.90;69.30
610;DHT22;292;48.800;9.216;2023-04-15T04:49:11;6.90;69.30
610;DHT22;292;48.800;9.216;2023-04-15T04:51:38;6.80;69.60
610;DHT22;292;48.800;9.216;2023-04-15T04:54:07;6.80;69.80
610;DHT22;292;48.800;9.216;2023-04-15T04:56:34;6.80;69.80
610;DHT22;292;48.800;9.216;2023-04-15T04:59:03;6.80;69.80
610;DHT22;292;48.800;9.216;2023-04-15T05:01:30;6.70;70.00
610;DHT22;292;48.800;9.216;2023-04-15T05:03:57;6.70;70.20
610;DHT22;292;48.800;9.216;2023-04-15T05:06:24;6.60;70.20
610;DHT22;292;48.800;9.216;2023-04-15T05:08:51;6.60;70.30
610;DHT22;292;48.800;9.216;2023-04-15T05:11:19;6.50;70.20
610;DHT22;292;48.800;9.216;2023-04-15T05:13:46;6.50;70.20
610;DHT22;292;48.800;9.216;2023-04-15T05:16:13;6.40;70.30
610;DHT22;292;48.800;9.216;2023-04-15T05:18:40;6.40;70.30
610;DHT22;292;48.800;9.216;2023-04-15T05:21:07;6.30;70.50
610;DHT22;292;48.800;9.216;2023-04-15T05:23:34;6.30;70.80
610;DHT22;292;48.800;9.216;2023-04-15T05:26:01;6.30;70.90
610;DHT22;292;48.800;9.216;2023-04-15T05:28:29;6.30;70.90
610;DHT22;292;48.800;9.216;2023-04-15T05:30:56;6.30;71.10
610;DHT22;292;48.800;9.216;2023-04-15T05:33:23;6.40;71.10
610;DHT22;292;48.800;9.216;2023-04-15T05:35:50;6.40;70.90
610;DHT22;292;48.800;9.216;2023-04-15T05:38:17;6.40;71.10
610;DHT22;292;48.800;9.216;2023-04-15T05:40:44;6.40;71.10
610;DHT22;292;48.800;9.216;2023-04-15T05:43:11;6.40;71.10
610;DHT22;292;48.800;9.216;2023-04-15T05:45:39;6.40;71.10
610;DHT22;292;48.800;9.216;2023-04-15T05:48:06;6.40;71.10
610;DHT22;292;48.800;9.216;2023-04-15T05:50:33;6.40;71.20
610;DHT22;292;48.800;9.216;2023-04-15T05:53:00;6.40;71.20
610;DHT22;292;48.800;9.216;2023-04-15T05:55:27;6.50;71.20
610;DHT22;292;48.800;9.216;2023-04-15T05:57:54;6.50;71.20
610;DHT22;292;48.800;9.216;2023-04-15T06:00:21;6.50;71.10
610;DHT22;292;48.800;9.216;2023-04-15T06:02:50;6.60;71.10
610;DHT22;292;48.800;9.216;2023-04-15T06:05:17;6.60;71.20
610;DHT22;292;48.800;9.216;2023-04-15T06:07:44;6.60;71.30
610;DHT22;292;48.800;9.216;2023-04-15T06:10:11;6.70;71.20
610;DHT22;292;48.800;9.216;2023-04-15T06:12:38;6.70;71.10
610;DHT22;292;48.800;9.216;2023-04-15T06:15:06;6.70;71.10
610;DHT22;292;48.800;9.216;2023-04-15T06:17:34;6.70;71.10
610;DHT22;292;48.800;9.216;2023-04-15T06:20:03;6.80;71.20
610;DHT22;292;48.800;9.216;2023-04-15T06:22:31;6.90;71.10
610;DHT22;292;48.800;9.216;2023-04-15T06:24:58;7.00;70.90
610;DHT22;292;48.800;9.216;2023-04-15T06:27:24;7.10;70.80
610;DHT22;292;48.800;9.216;2023-04-15T06:29:51;7.10;70.50
610;DHT22;292;48.800;9.216;2023-04-15T06:32:18;7.20;70.20
610;DHT22;292;48.800;9.216;2023-04-15T06:34:45;7.30;70.00
610;DHT22;292;48.800;9.216;2023-04-15T06:37:14;7.40;69.90
610;DHT22;292;48.800;9.216;2023-04-15T06:39:41;7.50;69.60
610;DHT22;292;48.800;9.216;2023-04-15T06:42:10;7.50;69.50
610;DHT22;292;48.800;9.216;2023-04-15T06:44:37;7.60;69.50
610;DHT22;292;48.800;9.216;2023-04-15T06:47:04;7.70;69.50
610;DHT22;292;48.800;9.216;2023-04-15T06:49:31;7.80;69.20
610;DHT22;292;48.800;9.216;2023-04-15T06:51:58;8.00;68.90
610;DHT22;292;48.800;9.216;2023-04-15T06:54:27;8.10;68.60
610;DHT22;292;48.800;9.216;2023-04-15T06:56:54;8.20;68.20
610;DHT22;292;48.800;9.216;2023-04-15T06:59:21;8.30;67.90
610;DHT22;292;48.800;9.216;2023-04-15T07:01:48;8.40;67.50
610;DHT22;292;48.800;9.216;2023-04-15T07:04:15;8.60;67.30
610;DHT22;292;48.800;9.216;2023-04-15T07:06:43;8.70;66.70
610;DHT22;292;48.800;9.216;2023-04-15T07:09:10;8.80;66.40
610;DHT22;292;48.800;9.216;2023-04-15T07:11:39;8.80;66.20
610;DHT22;292;48.800;9.216;2023-04-15T07:14:06;9.00;65.90
610;DHT22;292;48.800;9.216;2023-04-15T07:16:33;9.00;65.30
610;DHT22;292;48.800;9.216;2023-04-15T07:19:00;9.10;65.10
610;DHT22;292;48.800;9.216;2023-04-15T07:21:27;9.10;65.00
610;DHT22;292;48.800;9.216;2023-04-15T07:23:54;9.10;64.90
610;DHT22;292;48.800;9.216;2023-04-15T07:26:23;9.20;64.60
610;DHT22;292;48.800;9.216;2023-04-15T07:28:51;9.20;64.40
610;DHT22;292;48.800;9.216;2023-04-15T07:31:18;9.30;64.60
610;DHT22;292;48.800;9.216;2023-04-15T07:33:45;9.40;64.30
610;DHT22;292;48.800;9.216;2023-04-15T07:36:12;9.40;64.00
610;DHT22;292;48.800;9.216;2023-04-15T07:38:40;9.40;63.60
610;DHT22;292;48.800;9.216;2023-04-15T07:41:07;9.50;63.40
610;DHT22;292;48.800;9.216;2023-04-15T07:43:35;9.50;63.10
610;DHT22;292;48.800;9.216;2023-04-15T07:46:04;9.50;63.30
610;DHT22;292;48.800;9.216;2023-04-15T07:48:31;9.50;63.10
610;DHT22;292;48.800;9.216;2023-04-15T07:50:58;9.60;63.10
610;DHT22;292;48.800;9.216;2023-04-15T07:53:25;9.70;63.10
610;DHT22;292;48.800;9.216;2023-04-15T07:55:52;9.70;62.80
610;DHT22;292;48.800;9.216;2023-04-15T07:58:19;9.80;62.80
610;DHT22;292;48.800;9.216;2023-04-15T08:00:46;9.90;62.50
610;DHT22;292;48.800;9.216;2023-04-15T08:03:14;10.00;62.30
610;DHT22;292;48.800;9.216;2023-04-15T08:05:42;10.00;62.00
610;DHT22;292;48.800;9.216;2023-04-15T08:08:09;10.10;62.00
610;DHT22;292;48.800;9.216;2023-04-15T08:10:36;10.20;61.80
610;DHT22;292;48.800;9.216;2023-04-15T08:13:03;10.20;61.70
610;DHT22;292;48.800;9.216;2023-04-15T08:15:31;10.30;61.70
610;DHT22;292;48.800;9.216;2023-04-15T08:17:58;10.40;61.70
610;DHT22;292;48.800;9.216;2023-04-15T08:20:27;10.50;61.50
610;DHT22;292;48.800;9.216;2023-04-15T08:22:55;10.60;61.20
610;DHT22;292;48.800;9.216;2023-04-15T08:25:22;10.60;61.10
610;DHT22;292;48.800;9.216;2023-04-15T08:27:49;10.70;60.80
610;DHT22;292;48.800;9.216;2023-04-15T08:30:17;10.80;60.70
610;DHT22;292;48.800;9.216;2023-04-15T08:32:45;10.90;60.50
610;DHT22;292;48.800;9.216;2023-04-15T08:35:12;11.10;60.20
610;DHT22;292;48.800;9.216;2023-04-15T08:37:41;11.20;60.00
610;DHT22;292;48.800;9.216;2023-04-15T08:40:10;11.20;59.80
610;DHT22;292;48.800;9.216;2023-04-15T08:42:40;11.40;59.60
610;DHT22;292;48.800;9.216;2023-04-15T08:45:11;11.50;59.30
610;DHT22;292;48.800;9.216;2023-04-15T08:47:39;11.60;59.00
610;DHT22;292;48.800;9.216;2023-04-15T08:50:08;11.70;58.80
610;DHT22;292;48.800;9.216;2023-04-15T08:52:39;11.80;58.60
610;DHT22;292;48.800;9.216;2023-04-15T08:55:08;12.00;58.20
610;DHT22;292;48.800;9.216;2023-04-15T08:57:37;12.10;57.80
610;DHT22;292;48.800;9.216;2023-04-15T09:00:06;12.20;57.70
610;DHT22;292;48.800;9.216;2023-04-15T09:02:34;12.30;57.30
610;DHT22;292;48.800;9.216;2023-04-15T09:05:01;12.40;56.90
610;DHT22;292;48.800;9.216;2023-04-15T09:07:32;12.50;56.80
610;DHT22;292;48.800;9.216;2023-04-15T09:09:59;12.70;56.50
610;DHT22;292;48.800;9.216;2023-04-15T09:12:28;12.80;56.10
610;DHT22;292;48.800;9.216;2023-04-15T09:14:56;13.00;55.80
610;DHT22;292;48.800;9.216;2023-04-15T09:17:23;13.10;55.60
610;DHT22;292;48.800;9.216;2023-04-15T09:20:07;13.20;55.40
610;DHT22;292;48.800;9.216;2023-04-15T09:22:35;13.30;55.20
610;DHT22;292;48.800;9.216;2023-04-15T09:25:02;13.50;54.80
610;DHT22;292;48.800;9.216;2023-04-15T09:27:35;13.70;54.40
610;DHT22;292;48.800;9.216;2023-04-15T09:30:07;13.80;54.20
610;DHT22;292;48.800;9.216;2023-04-15T09:32:35;13.90;53.80
610;DHT22;292;48.800;9.216;2023-04-15T09:35:13;14.00;53.70
610;DHT22;292;48.800;9.216;2023-04-15T09:37:41;14.10;53.30
610;DHT22;292;48.800;9.216;2023-04-15T09:40:09;14.20;52.80
610;DHT22;292;48.800;9.216;2023-04-15T09:42:53;14.30;52.50
610;DHT22;292;48.800;9.216;2023-04-15T09:45:21;14.40;52.00
610;DHT22;292;48.800;9.216;2023-04-15T09:47:49;14.50;51.60
610;DHT22;292;48.800;9.216;2023-04-15T09:50:18;14.60;51.30
610;DHT22;292;48.800;9.216;2023-04-15T09:52:45;14.60;50.60
610;DHT22;292;48.800;9.216;2023-04-15T09:55:14;14.70;49.40
610;DHT22;292;48.800;9.216;2023-04-15T09:57:45;14.80;48.90
610;DHT22;292;48.800;9.216;2023-04-15T10:00:14;14.80;48.50
610;DHT22;292;48.800;9.216;2023-04-15T10:02:42;14.80;48.20
610;DHT22;292;48.800;9.216;2023-04-15T10:05:12;14.90;48.10
610;DHT22;292;48.800;9.216;2023-04-15T10:07:41;14.90;48.20
610;DHT22;292;48.800;9.216;2023-04-15T10:10:10;15.00;48.00
610;DHT22;292;48.800;9.216;2023-04-15T10:12:39;15.00;47.70
610;DHT22;292;48.800;9.216;2023-04-15T10:15:13;15.00;47.60
610;DHT22;292;48.800;9.216;2023-04-15T10:17:43;15.00;47.40
610;DHT22;292;48.800;9.216;2023-04-15T10:20:11;15.00;47.30
610;DHT22;292;48.800;9.216;2023-04-15T10:22:40;15.00;47.20
610;DHT22;292;48.800;9.216;2023-04-15T10:25:09;15.00;47.00
610;DHT22;292;48.800;9.216;2023-04-15T10:27:39;15.10;46.90
610;DHT22;292;48.800;9.216;2023-04-15T10:30:10;15.10;47.00
610;DHT22;292;48.800;9.216;2023-04-15T10:32:38;15.10;46.90
610;DHT22;292;48.800;9.216;2023-04-15T10:35:07;15.20;47.00
610;DHT22;292;48.800;9.216;2023-04-15T10:37:35;15.20;47.00
610;DHT22;292;48.800;9.216;2023-04-15T10:40:24;15.30;46.90
610;DHT22;292;48.800;9.216;2023-04-15T10:42:53;15.30;46.90
610;DHT22;292;48.800;9.216;2023-04-15T10:45:23;15.30;46.50
610;DHT22;292;48.800;9.216;2023-04-15T10:47:54;15.30;46.00
610;DHT22;292;48.800;9.216;2023-04-15T10:50:21;15.40;45.20
610;DHT22;292;48.800;9.216;2023-04-15T10:52:50;15.40;45.20
610;DHT22;292;48.800;9.216;2023-04-15T10:55:22;15.50;45.00
610;DHT22;292;48.800;9.216;2023-04-15T10:57:51;15.50;44.60
610;DHT22;292;48.800;9.216;2023-04-15T11:00:24;15.50;44.50
610;DHT22;292;48.800;9.216;2023-04-15T11:02:54;15.60;44.40
610;DHT22;292;48.800;9.216;2023-04-15T11:05:22;15.60;44.10
610;DHT22;292;48.800;9.216;2023-04-15T11:08:09;15.70;44.00
610;DHT22;292;48.800;9.216;2023-04-15T11:10:52;15.70;43.70
610;DHT22;292;48.800;9.216;2023-04-15T11:13:26;15.70;43.60
610;DHT22;292;48.800;9.216;2023-04-15T11:16:11;15.80;43.70
610;DHT22;292;48.800;9.216;2023-04-15T11:18:38;15.80;43.70
610;DHT22;292;48.800;9.216;2023-04-15T11:21:06;15.90;43.60
610;DHT22;292;48.800;9.216;2023-04-15T11:23:38;15.90;42.90
610;DHT22;292;48.800;9.216;2023-04-15T11:26:07;16.00;43.00
610;DHT22;292;48.800;9.216;2023-04-15T11:28:37;16.10;42.90
610;DHT22;292;48.800;9.216;2023-04-15T11:31:08;16.10;43.00
610;DHT22;292;48.800;9.216;2023-04-15T11:33:37;16.20;43.40
610;DHT22;292;48.800;9.216;2023-04-15T11:36:04;16.20;43.60
610;DHT22;292;48.800;9.216;2023-04-15T11:38:33;16.30;42.80
610;DHT22;292;48.800;9.216;2023-04-15T11:41:00;16.30;41.80
610;DHT22;292;48.800;9.216;2023-04-15T11:43:31;16.30;41.60
610;DHT22;292;48.800;9.216;2023-04-15T11:46:01;16.20;41.80
610;DHT22;292;48.800;9.216;2023-04-15T11:48:32;16.20;41.80
610;DHT22;292;48.800;9.216;2023-04-15T11:51:01;16.10;41.80
610;DHT22;292;48.800;9.216;2023-04-15T11:53:41;16.10;42.40
610;DHT22;292;48.800;9.216;2023-04-15T11:56:09;16.10;43.20
610;DHT22;292;48.800;9.216;2023-04-15T11:58:37;16.00;43.80
610;DHT22;292;48.800;9.216;2023-04-15T12:01:05;15.90;44.60
610;DHT22;292;48.800;9.216;2023-04-15T12:03:38;15.90;45.30
610;DHT22;292;48.800;9.216;2023-04-15T12:06:08;15.80;45.30
610;DHT22;292;48.800;9.216;2023-04-15T12:08:57;15.80;45.20
610;DHT22;292;48.800;9.216;2023-04-15T12:11:36;15.80;45.00
610;DHT22;292;48.800;9.216;2023-04-15T12:14:05;15.80;44.90
610;DHT22;292;48.800;9.216;2023-04-15T12:16:34;15.90;45.00
610;DHT22;292;48.800;9.216;2023-04-15T12:19:06;15.90;45.20
610;DHT22;292;48.800;9.216;2023-04-15T12:21:36;16.00;44.90
610;DHT22;292;48.800;9.216;2023-04-15T12:24:04;15.90;44.50
610;DHT22;292;48.800;9.216;2023-04-15T12:26:34;15.90;44.20
610;DHT22;292;48.800;9.216;2023-04-15T12:29:02;15.80;44.40
610;DHT22;292;48.800;9.216;2023-04-15T12:31:30;15.80;44.80
610;DHT22;292;48.800;9.216;2023-04-15T12:33:57;15.70;45.70
610;DHT22;292;48.800;9.216;2023-04-15T12:36:27;15.40;48.50
610;DHT22;292;48.800;9.216;2023-04-15T12:38:55;15.10;50.60
610;DHT22;292;48.800;9.216;2023-04-15T12:41:22;14.70;52.50
610;DHT22;292;48.800;9.216;2023-04-15T12:43:50;14.30;53.70
610;DHT22;292;48.800;9.216;2023-04-15T12:46:17;14.00;54.80
610;DHT22;292;48.800;9.216;2023-04-15T12:48:44;13.70;55.70
610;DHT22;292;48.800;9.216;2023-04-15T12:51:12;13.40;56.50
610;DHT22;292;48.800;9.216;2023-04-15T12:53:41;13.20;57.20
610;DHT22;292;48.800;9.216;2023-04-15T12:56:08;13.10;57.70
610;DHT22;292;48.800;9.216;2023-04-15T12:58:35;13.10;58.50
610;DHT22;292;48.800;9.216;2023-04-15T13:01:04;13.00;59.20
610;DHT22;292;48.800;9.216;2023-04-15T13:03:40;13.00;59.60
610;DHT22;292;48.800;9.216;2023-04-15T13:06:13;13.00;60.10
610;DHT22;292;48.800;9.216;2023-04-15T13:08:50;13.00;60.50
610;DHT22;292;48.800;9.216;2023-04-15T13:11:26;13.10;61.00
610;DHT22;292;48.800;9.216;2023-04-15T13:14:01;13.10;61.10
610;DHT22;292;48.800;9.216;2023-04-15T13:16:35;13.10;61.10
610;DHT22;292;48.800;9.216;2023-04-15T13:19:09;13.20;60.80
610;DHT22;292;48.800;9.216;2023-04-15T13:21:42;13.20;60.40
610;DHT22;292;48.800;9.216;2023-04-15T13:24:33;13.30;59.20
610;DHT22;292;48.800;9.216;2023-04-15T13:27:06;13.30;58.00
610;DHT22;292;48.800;9.216;2023-04-15T13:29:41;13.40;57.40
610;DHT22;292;48.800;9.216;2023-04-15T13:32:14;13.40;56.60
610;DHT22;292;48.800;9.216;2023-04-15T13:34:47;13.40;56.60
610;DHT22;292;48.800;9.216;2023-04-15T13:37:21;13.50;56.50
610;DHT22;292;48.800;9.216;2023-04-15T13:40:04;13.50;55.70
610;DHT22;292;48.800;9.216;2023-04-15T13:42:37;13.60;55.00
610;DHT22;292;48.800;9.216;2023-04-15T13:45:10;13.60;54.10
610;DHT22;292;48.800;9.216;2023-04-15T13:47:44;13.70;53.30
610;DHT22;292;48.800;9.216;2023-04-15T13:50:16;13.80;52.60
610;DHT22;292;48.800;9.216;2023-04-15T13:52:53;13.80;52.00
610;DHT22;292;48.800;9.216;2023-04-15T13:55:29;13.90;51.80
610;DHT22;292;48.800;9.216;2023-04-15T13:58:01;14.00;50.90
610;DHT22;292;48.800;9.216;2023-04-15T14:00:30;14.10;49.60
610;DHT22;292;48.800;9.216;2023-04-15T14:02:57;14.10;48.00
610;DHT22;292;48.800;9.216;2023-04-15T14:05:24;14.20;46.50
610;DHT22;292;48.800;9.216;2023-04-15T14:07:51;14.20;46.00
610;DHT22;292;48.800;9.216;2023-04-15T14:10:18;14.20;45.80
610;DHT22;292;48.800;9.216;2023-04-15T14:12:46;14.20;45.70
610;DHT22;292;48.800;9.216;2023-04-15T14:15:14;14.30;44.90
610;DHT22;292;48.800;9.216;2023-04-15T14:17:41;14.30;44.10
610;DHT22;292;48.800;9.216;2023-04-15T14:20:09;14.30;43.80
610;DHT22;292;48.800;9.216;2023-04-15T14:22:36;14.30;43.70
610;DHT22;292;48.800;9.216;2023-04-15T14:25:03;14.30;43.70
610;DHT22;292;48.800;9.216;2023-04-15T14:27:30;14.30;43.60
610;DHT22;292;48.800;9.216;2023-04-15T14:29:59;14.30;43.00
610;DHT22;292;48.800;9.216;2023-04-15T14:32:26;14.30;42.20
610;DHT22;292;48.800;9.216;2023-04-15T14:34:53;14.20;41.30
610;DHT22;292;48.800;9.216;2023-04-15T14:37:20;14.20;40.60
610;DHT22;292;48.800;9.216;2023-04-15T14:39:47;14.20;40.60
610;DHT22;292;48.800;9.216;2023-04-15T14:42:14;14.20;40.90
610;DHT22;292;48.800;9.216;2023-04-15T14:44:41;14.10;41.20
610;DHT22;292;48.800;9.216;2023-04-15T14:47:10;14.10;41.00
610;DHT22;292;48.800;9.216;2023-04-15T14:49:37;14.10;41.20
610;DHT22;292;48.800;9.216;2023-04-15T14:52:04;14.00;41.60
610;DHT22;292;48.800;9.216;2023-04-15T14:54:31;14.00;41.70
610;DHT22;292;48.800;9.216;2023-04-15T14:56:58;14.00;41.80
610;DHT22;292;48.800;9.216;2023-04-15T14:59:26;13.90;42.10
610;DHT22;292;48.800;9.216;2023-04-15T15:01:53;13.80;42.20
610;DHT22;292;48.800;9.216;2023-04-15T15:04:21;13.70;42.50
610;DHT22;292;48.800;9.216;2023-04-15T15:06:48;13.70;42.80
610;DHT22;292;48.800;9.216;2023-04-15T15:09:16;13.60;43.00
610;DHT22;292;48.800;9.216;2023-04-15T15:11:44;13.50;43.40
610;DHT22;292;48.800;9.216;2023-04-15T15:14:11;13.50;44.10
610;DHT22;292;48.800;9.216;2023-04-15T15:16:38;13.40;44.40
610;DHT22;292;48.800;9.216;2023-04-15T15:19:05;13.30;45.00
610;DHT22;292;48.800;9.216;2023-04-15T15:21:33;13.30;45.40
610;DHT22;292;48.800;9.216;2023-04-15T15:24:00;13.20;45.70
610;DHT22;292;48.800;9.216;2023-04-15T15:26:27;13.20;46.00
610;DHT22;292;48.800;9.216;2023-04-15T15:28:54;13.20;46.20
610;DHT22;292;48.800;9.216;2023-04-15T15:31:21;13.10;46.40
610;DHT22;292;48.800;9.216;2023-04-15T15:33:48;13.10;46.50
610;DHT22;292;48.800;9.216;2023-04-15T15:36:16;13.10;47.00
610;DHT22;292;48.800;9.216;2023-04-15T15:38:46;13.10;47.40
610;DHT22;292;48.800;9.216;2023-04-15T15:41:13;13.10;47.80
610;DHT22;292;48.800;9.216;2023-04-15T15:43:40;13.10;48.00
610;DHT22;292;48.800;9.216;2023-04-15T15:46:07;13.10;48.20
610;DHT22;292;48.800;9.216;2023-04-15T15:48:34;13.10;48.50
610;DHT22;292;48.800;9.216;2023-04-15T15:51:01;13.10;48.80
610;DHT22;292;48.800;9.216;2023-04-15T15:53:29;13.10;48.80
610;DHT22;292;48.800;9.216;2023-04-15T15:55:59;13.10;48.80
610;DHT22;292;48.800;9.216;2023-04-15T15:58:29;13.10;48.80
610;DHT22;292;48.800;9.216;2023-04-15T16:00:56;13.10;48.80
610;DHT22;292;48.800;9.216;2023-04-15T16:03:23;13.00;48.90
610;DHT22;292;48.800;9.216;2023-04-15T16:05:50;13.00;49.20
610;DHT22;292;48.800;9.216;2023-04-15T16:08:16;13.00;49.70
610;DHT22;292;48.800;9.216;2023-04-15T16:10:44;13.00;50.40
610;DHT22;292;48.800;9.216;2023-04-15T16:13:13;13.00;51.00
610;DHT22;292;48.800;9.216;2023-04-15T16:15:40;12.90;52.00
610;DHT22;292;48.800;9.216;2023-04-15T16:18:07;12.90;53.00
610;DHT22;292;48.800;9.216;2023-04-15T16:20:34;12.80;53.70
610;DHT22;292;48.800;9.216;2023-04-15T16:23:07;12.80;54.80
610;DHT22;292;48.800;9.216;2023-04-15T16:25:37;12.70;55.70
610;DHT22;292;48.800;9.216;2023-04-15T16:28:04;12.70;56.60
610;DHT22;292;48.800;9.216;2023-04-15T16:30:34;12.70;57.30
610;DHT22;292;48.800;9.216;2023-04-15T16:33:01;12.70;58.00
610;DHT22;292;48.800;9.216;2023-04-15T16:35:28;12.60;58.60
610;DHT22;292;48.800;9.216;2023-04-15T16:37:55;12.60;59.40
610;DHT22;292;48.800;9.216;2023-04-15T16:40:22;12.70;60.00
610;DHT22;292;48.800;9.216;2023-04-15T16:42:50;12.60;60.80
610;DHT22;292;48.800;9.216;2023-04-15T16:45:17;12.60;61.40
610;DHT22;292;48.800;9.216;2023-04-15T16:47:47;12.60;62.30
610;DHT22;292;48.800;9.216;2023-04-15T16:50:14;12.60;63.00